sensor_id;sensor_type;location;lat;lon;timestamp;temperature;humidity
2409;DHT22;8463;48.094;7.970;2023-05-27T00:00:18;18.00;1.00
2409;DHT22;8463;48.094;7.970;2023-05-27T00:02:43;18.00;1.00
2409;DHT22;8463;48.094;7.970;2023-05-27T00:05:09;18.10;1.00
2409;DHT22;8463;48.094;7.970;2023-05-27T00:07:35;18.10;1.00
2409;DHT22;8463;48.094;7.970;2023-05-27T00:10:00;18.10;1.00
2409;DHT22;8463;48.094;7.970;2023-05-27T00:12:26;18.10;1.00
2409;DHT22;8463;48.094;7.970;2023-05-27T00:14:52;18.00;1.00
2409;DHT22;8463;48.094;7.970;2023-05-27T00:17:17;18.00;1.00
2409;DHT22;8463;48.094;7.970;2023-05-27T00:19:43;18.00;1.00
2409;DHT22;8463;48.094;7.970;2023-05-27T00:22:17;18.00;1.00
2409;DHT22;8463;48.094;7.970;2023-05-27T00:24:46;18.10;1.00
2409;DHT22;8463;48.094;7.970;2023-05-27T00:27:11;18.00;1.00
2409;DHT22;8463;48.094;7.970;2023-05-27T00:29:40;18.00;1.00
2409;DHT22;8463;48.094;7.970;2023-05-27T00:32:06;18.00;1.00
2409;DHT22;8463;48.094;7.970;2023-05-27T00:34:33;18.00;1.00
2409;DHT22;8463;48.094;7.970;2023-05-27T00:36:59;18.00;1.00
2409;DHT22;8463;48.094;7.970;2023-05-27T00:39:26;18.00;1.00
2409;DHT22;8463;48.094;7.970;2023-05-27T00:41:51;18.00;1.00
2409;DHT22;8463;48.094;7.970;2023-05-27T00:44:19;17.90;1.00
2409;DHT22;8463;48.094;7.970;2023-05-27T00:46:50;17.90;1.00
2409;DHT22;8463;48.094;7.970;2023-05-27T00:49:16;17.90;1.00
2409;DHT22;8463;48.094;7.970;2023-05-27T00:51:42;17.90;1.00
2409;DHT22;8463;48.094;7.970;2023-05-27T00:54:08;17.80;1.00
2409;DHT22;8463;48.094;7.970;2023-05-27T00:56:37;17.80;1.00
2409;DHT22;8463;48.094;7.970;2023-05-27T00:59:03;17.80;1.00
2409;DHT22;8463;48.094;7.970;2023-05-27T01:01:29;17.80;1.00
2409;DHT22;8463;48.094;7.970;2023-05-27T01:03:56;17.70;1.00
2409;DHT22;8463;48.094;7.970;2023-05-27T01:06:27;17.70;1.00
2409;DHT22;8463;48.094;7.970;2023-05-27T01:09:11;17.70;1.00
2409;DHT22;8463;48.094;7.970;2023-05-27T01:12:10;17.60;1.00
2409;DHT22;8463;48.094;7.970;2023-05-27T01:14:40;17.60;1.00
2409;DHT22;8463;48.094;7.970;2023-05-27T01:17:09;17.60;1.00
2409;DHT22;8463;48.094;7.970;2023-05-27T01:19:43;17.60;1.00
2409;DHT22;8463;48.094;7.970;2023-05-27T01:22:14;17.60;1.00
2409;DHT22;8463;48.094;7.970;2023-05-27T01:24:42;16.90;1.00
2409;DHT22;8463;48.094;7.970;2023-05-27T01:27:10;16.60;1.00
2409;DHT22;8463;48.094;7.970;2023-05-27T01:29:39;16.50;1.00
2409;DHT22;8463;48.094;7.970;2023-05-27T01:32:18;16.50;1.00
2409;DHT22;8463;48.094;7.970;2023-05-27T01:37:41;16.90;1.00
2409;DHT22;8463;48.094;7.970;2023-05-27T01:40:09;17.00;1.00
2409;DHT22;8463;48.094;7.970;2023-05-27T01:42:43;17.00;1.00
2409;DHT22;8463;48.094;7.970;2023-05-27T01:45:10;17.10;1.00
2409;DHT22;8463;48.094;7.970;2023-05-27T01:47:37;17.10;1.00
2409;DHT22;8463;48.094;7.970;2023-05-27T01:50:03;17.20;1.00
2409;DHT22;8463;48.094;7.970;2023-05-27T01:52:32;16.90;1.00
2409;DHT22;8463;48.094;7.970;2023-05-27T01:54:58;16.70;1.00
2409;DHT22;8463;48.094;7.970;2023-05-27T01:57:25;16.50;1.00
2409;DHT22;8463;48.094;7.970;2023-05-27T01:59:53;16.50;1.00
2409;DHT22;8463;48.094;7.970;2023-05-27T02:02:24;16.00;1.00
2409;DHT22;8463;48.094;7.970;2023-05-27T02:04:50;16.10;1.00
2409;DHT22;8463;48.094;7.970;2023-05-27T02:07:16;16.10;1.00
2409;DHT22;8463;48.094;7.970;2023-05-27T02:09:46;16.10;1.00
2409;DHT22;8463;48.094;7.970;2023-05-27T02:12:14;15.90;1.00
2409;DHT22;8463;48.094;7.970;2023-05-27T02:14:40;15.80;1.00
2409;DHT22;8463;48.094;7.970;2023-05-27T02:17:06;15.80;1.00
2409;DHT22;8463;48.094;7.970;2023-05-27T02:19:40;15.90;1.00
2409;DHT22;8463;48.094;7.970;2023-05-27T02:22:05;15.80;1.00
2409;DHT22;8463;48.094;7.970;2023-05-27T02:24:34;15.80;1.00
2409;DHT22;8463;48.094;7.970;2023-05-27T02:27:01;15.30;1.00
2409;DHT22;8463;48.094;7.970;2023-05-27T02:29:27;15.20;1.00
2409;DHT22;8463;48.094;7.970;2023-05-27T02:31:55;15.30;1.00
2409;DHT22;8463;48.094;7.970;2023-05-27T02:34:21;15.20;1.00
2409;DHT22;8463;48.094;7.970;2023-05-27T02:36:46;15.20;1.00
2409;DHT22;8463;48.094;7.970;2023-05-27T02:39:12;15.40;1.00
2409;DHT22;8463;48.094;7.970;2023-05-27T02:41:38;15.50;1.00
2409;DHT22;8463;48.094;7.970;2023-05-27T02:44:05;15.50;1.00
2409;DHT22;8463;48.094;7.970;2023-05-27T02:46:31;15.60;1.00
2409;DHT22;8463;48.094;7.970;2023-05-27T02:48:56;15.40;1.00
2409;DHT22;8463;48.094;7.970;2023-05-27T02:51:22;15.10;1.00
2409;DHT22;8463;48.094;7.970;2023-05-27T02:53:49;15.10;1.00
2409;DHT22;8463;48.094;7.970;2023-05-27T02:56:14;15.20;1.00
2409;DHT22;8463;48.094;7.970;2023-05-27T02:58:40;15.20;1.00
2409;DHT22;8463;48.094;7.970;2023-05-27T03:01:05;15.40;1.00
2409;DHT22;8463;48.094;7.970;2023-05-27T03:03:34;15.30;1.00
2409;DHT22;8463;48.094;7.970;2023-05-27T03:06:00;15.20;1.00
2409;DHT22;8463;48.094;7.970;2023-05-27T03:08:26;15.10;1.00
2409;DHT22;8463;48.094;7.970;2023-05-27T03:10:52;15.00;1.00
2409;DHT22;8463;48.094;7.970;2023-05-27T03:13:18;15.10;1.00
2409;DHT22;8463;48.094;7.970;2023-05-27T03:15:44;15.10;1.00
2409;DHT22;8463;48.094;7.970;2023-05-27T03:18:09;14.90;1.00
2409;DHT22;8463;48.094;7.970;2023-05-27T03:20:38;15.10;1.00
2409;DHT22;8463;48.094;7.970;2023-05-27T03:23:03;15.10;1.00
2409;DHT22;8463;48.094;7.970;2023-05-27T03:25:29;15.10;1.00
2409;DHT22;8463;48.094;7.970;2023-05-27T03:27:58;15.20;1.00
2409;DHT22;8463;48.094;7.970;2023-05-27T03:30:26;15.10;1.00
2409;DHT22;8463;48.094;7.970;2023-05-27T03:32:52;15.00;1.00
2409;DHT22;8463;48.094;7.970;2023-05-27T03:35:18;15.00;1.00
2409;DHT22;8463;48.094;7.970;2023-05-27T03:37:43;15.00;1.00
2409;DHT22;8463;48.094;7.970;2023-05-27T03:40:09;14.80;1.00
2409;DHT22;8463;48.094;7.970;2023-05-27T03:42:35;14.80;1.00
2409;DHT22;8463;48.094;7.970;2023-05-27T03:45:01;14.70;1.00
2409;DHT22;8463;48.094;7.970;2023-05-27T03:47:27;14.70;1.00
2409;DHT22;8463;48.094;7.970;2023-05-27T03:49:53;14.40;1.00
2409;DHT22;8463;48.094;7.970;2023-05-27T03:52:18;14.50;1.00
2409;DHT22;8463;48.094;7.970;2023-05-27T03:54:44;14.40;1.00
2409;DHT22;8463;48.094;7.970;2023-05-27T03:57:10;14.30;1.00
2409;DHT22;8463;48.094;7.970;2023-05-27T03:59:39;14.20;1.00
2409;DHT22;8463;48.094;7.970;2023-05-27T04:02:05;14.10;1.00
2409;DHT22;8463;48.094;7.970;2023-05-27T04:04:31;14.10;1.00
2409;DHT22;8463;48.094;7.970;2023-05-27T04:06:59;14.00;1.00
2409;DHT22;8463;48.094;7.970;2023-05-27T04:09:26;14.00;1.00
2409;DHT22;8463;48.094;7.970;2023-05-27T04:11:52;14.00;1.00
2409;DHT22;8463;48.094;7.970;2023-05-27T04:14:18;14.00;1.00
2409;DHT22;8463;48.094;7.970;2023-05-27T04:16:44;14.10;1.00
2409;DHT22;8463;48.094;7.970;2023-05-27T04:21:35;14.20;1.00
2409;DHT22;8463;48.094;7.970;2023-05-27T04:24:02;14.20;1.00
2409;DHT22;8463;48.094;7.970;2023-05-27T04:26:28;14.40;1.00
2409;DHT22;8463;48.094;7.970;2023-05-27T04:28:54;14.50;1.00
2409;DHT22;8463;48.094;7.970;2023-05-27T04:31:19;14.50;1.00
2409;DHT22;8463;48.094;7.970;2023-05-27T04:33:45;14.50;1.00
2409;DHT22;8463;48.094;7.970;2023-05-27T04:36:11;14.60;1.00
2409;DHT22;8463;48.094;7.970;2023-05-27T04:38:37;14.70;1.00
2409;DHT22;8463;48.094;7.970;2023-05-27T04:41:06;14.80;1.00
2409;DHT22;8463;48.094;7.970;2023-05-27T04:43:32;14.80;1.00
2409;DHT22;8463;48.094;7.970;2023-05-27T04:46:04;14.70;1.00
2409;DHT22;8463;48.094;7.970;2023-05-27T04:48:33;14.80;1.00
2409;DHT22;8463;48.094;7.970;2023-05-27T04:51:00;14.90;1.00
2409;DHT22;8463;48.094;7.970;2023-05-27T04:53:26;15.10;1.00
2409;DHT22;8463;48.094;7.970;2023-05-27T04:55:52;15.20;1.00
2409;DHT22;8463;48.094;7.970;2023-05-27T04:58:17;15.00;1.00
2409;DHT22;8463;48.094;7.970;2023-05-27T05:00:43;14.80;1.00
2409;DHT22;8463;48.094;7.970;2023-05-27T05:03:21;14.80;1.00
2409;DHT22;8463;48.094;7.970;2023-05-27T05:05:51;15.00;1.00
2409;DHT22;8463;48.094;7.970;2023-05-27T05:08:22;15.10;1.00
2409;DHT22;8463;48.094;7.970;2023-05-27T05:10:48;14.80;1.00
2409;DHT22;8463;48.094;7.970;2023-05-27T05:13:14;14.80;1.00
2409;DHT22;8463;48.094;7.970;2023-05-27T05:15:41;14.80;1.00
2409;DHT22;8463;48.094;7.970;2023-05-27T05:18:11;14.70;1.00
2409;DHT22;8463;48.094;7.970;2023-05-27T05:20:38;14.60;1.00
2409;DHT22;8463;48.094;7.970;2023-05-27T05:23:06;14.60;1.00
2409;DHT22;8463;48.094;7.970;2023-05-27T05:25:34;14.60;1.00
2409;DHT22;8463;48.094;7.970;2023-05-27T05:28:09;14.50;1.00
2409;DHT22;8463;48.094;7.970;2023-05-27T05:30:34;14.60;1.00
2409;DHT22;8463;48.094;7.970;2023-05-27T05:33:00;14.60;1.00
2409;DHT22;8463;48.094;7.970;2023-05-27T05:35:26;14.70;1.00
2409;DHT22;8463;48.094;7.970;2023-05-27T05:37:51;14.60;1.00
2409;DHT22;8463;48.094;7.970;2023-05-27T05:40:17;14.50;1.00
2409;DHT22;8463;48.094;7.970;2023-05-27T05:42:43;14.60;1.00
2409;DHT22;8463;48.094;7.970;2023-05-27T05:45:08;14.60;1.00
2409;DHT22;8463;48.094;7.970;2023-05-27T05:47:34;14.60;1.00
2409;DHT22;8463;48.094;7.970;2023-05-27T05:50:02;14.60;1.00
2409;DHT22;8463;48.094;7.970;2023-05-27T05:52:28;14.80;1.00
2409;DHT22;8463;48.094;7.970;2023-05-27T05:54:54;14.80;1.00
2409;DHT22;8463;48.094;7.970;2023-05-27T05:57:20;14.70;1.00
2409;DHT22;8463;48.094;7.970;2023-05-27T05:59:46;14.80;1.00
2409;DHT22;8463;48.094;7.970;2023-05-27T06:02:11;15.00;1.00
2409;DHT22;8463;48.094;7.970;2023-05-27T06:04:37;15.10;1.00
2409;DHT22;8463;48.094;7.970;2023-05-27T06:07:03;15.10;1.00
2409;DHT22;8463;48.094;7.970;2023-05-27T06:09:34;15.10;1.00
2409;DHT22;8463;48.094;7.970;2023-05-27T06:12:00;15.00;1.00
2409;DHT22;8463;48.094;7.970;2023-05-27T06:14:26;15.00;1.00
2409;DHT22;8463;48.094;7.970;2023-05-27T06:16:52;15.20;1.00
2409;DHT22;8463;48.094;7.970;2023-05-27T06:19:22;15.30;1.00
2409;DHT22;8463;48.094;7.970;2023-05-27T06:21:48;15.20;1.00
2409;DHT22;8463;48.094;7.970;2023-05-27T06:24:14;15.30;1.00
2409;DHT22;8463;48.094;7.970;2023-05-27T06:26:40;15.20;1.00
2409;DHT22;8463;48.094;7.970;2023-05-27T06:29:15;15.20;1.00
2409;DHT22;8463;48.094;7.970;2023-05-27T06:31:41;15.20;1.00
2409;DHT22;8463;48.094;7.970;2023-05-27T06:34:15;15.30;1.00
2409;DHT22;8463;48.094;7.970;2023-05-27T06:36:41;15.40;1.00
2409;DHT22;8463;48.094;7.970;2023-05-27T06:39:07;15.40;1.00
2409;DHT22;8463;48.094;7.970;2023-05-27T06:41:32;15.50;1.00
2409;DHT22;8463;48.094;7.970;2023-05-27T06:43:58;15.60;1.00
2409;DHT22;8463;48.094;7.970;2023-05-27T06:46:26;15.40;1.00
2409;DHT22;8463;48.094;7.970;2023-05-27T06:48:52;15.50;1.00
2409;DHT22;8463;48.094;7.970;2023-05-27T06:51:20;15.50;1.00
2409;DHT22;8463;48.094;7.970;2023-05-27T06:53:46;15.60;1.00
2409;DHT22;8463;48.094;7.970;2023-05-27T06:56:14;15.80;1.00
2409;DHT22;8463;48.094;7.970;2023-05-27T06:58:40;15.90;1.00
2409;DHT22;8463;48.094;7.970;2023-05-27T07:01:06;16.00;1.00
2409;DHT22;8463;48.094;7.970;2023-05-27T07:03:36;16.10;1.00
2409;DHT22;8463;48.094;7.970;2023-05-27T07:06:02;16.30;1.00
2409;DHT22;8463;48.094;7.970;2023-05-27T07:08:28;16.40;1.00
2409;DHT22;8463;48.094;7.970;2023-05-27T07:10:57;16.50;1.00
2409;DHT22;8463;48.094;7.970;2023-05-27T07:13:22;16.50;1.00
2409;DHT22;8463;48.094;7.970;2023-05-27T07:15:48;16.50;1.00
2409;DHT22;8463;48.094;7.970;2023-05-27T07:18:13;16.70;1.00
2409;DHT22;8463;48.094;7.970;2023-05-27T07:20:39;16.90;1.00
2409;DHT22;8463;48.094;7.970;2023-05-27T07:23:05;16.90;1.00
2409;DHT22;8463;48.094;7.970;2023-05-27T07:25:31;16.90;1.00
2409;DHT22;8463;48.094;7.970;2023-05-27T07:27:59;16.90;1.00
2409;DHT22;8463;48.094;7.970;2023-05-27T07:30:27;17.00;1.00
2409;DHT22;8463;48.094;7.970;2023-05-27T07:33:01;17.00;1.00
2409;DHT22;8463;48.094;7.970;2023-05-27T07:35:27;17.10;1.00
2409;DHT22;8463;48.094;7.970;2023-05-27T07:37:55;17.20;1.00
2409;DHT22;8463;48.094;7.970;2023-05-27T07:40:20;17.40;1.00
2409;DHT22;8463;48.094;7.970;2023-05-27T07:42:46;17.60;1.00
2409;DHT22;8463;48.094;7.970;2023-05-27T07:45:12;17.70;1.00
2409;DHT22;8463;48.094;7.970;2023-05-27T07:47:37;17.80;1.00
2409;DHT22;8463;48.094;7.970;2023-05-27T07:50:03;17.90;1.00
2409;DHT22;8463;48.094;7.970;2023-05-27T07:52:29;17.90;1.00
2409;DHT22;8463;48.094;7.970;2023-05-27T07:54:54;18.00;1.00
2409;DHT22;8463;48.094;7.970;2023-05-27T07:57:25;17.90;1.00
2409;DHT22;8463;48.094;7.970;2023-05-27T07:59:51;18.20;1.00
2409;DHT22;8463;48.094;7.970;2023-05-27T08:02:17;18.40;1.00
2409;DHT22;8463;48.094;7.970;2023-05-27T08:04:47;18.50;1.00
2409;DHT22;8463;48.094;7.970;2023-05-27T18:48:32;23.30;1.00
2409;DHT22;8463;48.094;7.970;2023-05-27T18:51:00;23.30;1.00
2409;DHT22;8463;48.094;7.970;2023-05-27T18:53:26;23.20;1.00
2409;DHT22;8463;48.094;7.970;2023-05-27T18:55:52;23.20;1.00
2409;DHT22;8463;48.094;7.970;2023-05-27T18:58:18;23.10;1.00
2409;DHT22;8463;48.094;7.970;2023-05-27T19:00:44;23.00;1.00
2409;DHT22;8463;48.094;7.970;2023-05-27T19:03:11;22.90;1.00
2409;DHT22;8463;48.094;7.970;2023-05-27T19:05:38;22.90;1.00
2409;DHT22;8463;48.094;7.970;2023-05-27T19:08:06;22.90;1.00
2409;DHT22;8463;48.094;7.970;2023-05-27T19:10:32;22.80;1.00
2409;DHT22;8463;48.094;7.970;2023-05-27T19:12:58;22.70;1.00
2409;DHT22;8463;48.094;7.970;2023-05-27T19:15:23;22.70;1.00
2409;DHT22;8463;48.094;7.970;2023-05-27T19:17:49;22.70;1.00
2409;DHT22;8463;48.094;7.970;2023-05-27T19:20:20;22.60;1.00
2409;DHT22;8463;48.094;7.970;2023-05-27T19:22:48;22.60;1.00
2409;DHT22;8463;48.094;7.970;2023-05-27T19:25:14;22.50;1.00
2409;DHT22;8463;48.094;7.970;2023-05-27T19:27:40;22.50;1.00
2409;DHT22;8463;48.094;7.970;2023-05-27T19:30:09;22.50;1.00
2409;DHT22;8463;48.094;7.970;2023-05-27T19:32:35;22.50;1.00
2409;DHT22;8463;48.094;7.970;2023-05-27T19:35:01;22.40;1.00
2409;DHT22;8463;48.094;7.970;2023-05-27T19:37:32;22.40;1.00
2409;DHT22;8463;48.094;7.970;2023-05-27T19:39:58;22.40;1.00
2409;DHT22;8463;48.094;7.970;2023-05-27T19:42:24;22.30;1.00
2409;DHT22;8463;48.094;7.970;2023-05-27T19:44:50;22.30;1.00
2409;DHT22;8463;48.094;7.970;2023-05-27T19:47:17;22.30;1.00
2409;DHT22;8463;48.094;7.970;2023-05-27T19:49:45;22.30;1.00
2409;DHT22;8463;48.094;7.970;2023-05-27T19:52:14;22.30;1.00
2409;DHT22;8463;48.094;7.970;2023-05-27T19:54:42;22.10;1.00
2409;DHT22;8463;48.094;7.970;2023-05-27T19:57:10;22.10;1.00
2409;DHT22;8463;48.094;7.970;2023-05-27T19:59:36;22.00;1.00
2409;DHT22;8463;48.094;7.970;2023-05-27T20:02:02;21.80;1.00
2409;DHT22;8463;48.094;7.970;2023-05-27T20:04:28;21.60;1.00
2409;DHT22;8463;48.094;7.970;2023-05-27T20:06:54;21.60;1.00
2409;DHT22;8463;48.094;7.970;2023-05-27T20:09:22;21.50;1.00
2409;DHT22;8463;48.094;7.970;2023-05-27T20:11:47;21.10;1.00
2409;DHT22;8463;48.094;7.970;2023-05-27T20:14:14;20.90;1.00
2409;DHT22;8463;48.094;7.970;2023-05-27T20:16:40;20.80;1.00
2409;DHT22;8463;48.094;7.970;2023-05-27T20:19:06;20.70;1.00
2409;DHT22;8463;48.094;7.970;2023-05-27T20:21:31;20.70;1.00
2409;DHT22;8463;48.094;7.970;2023-05-27T20:23:57;20.50;1.00
2409;DHT22;8463;48.094;7.970;2023-05-27T20:26:23;20.50;1.00
2409;DHT22;8463;48.094;7.970;2023-05-27T20:28:50;20.40;1.00
2409;DHT22;8463;48.094;7.970;2023-05-27T20:31:15;20.40;1.00
2409;DHT22;8463;48.094;7.970;2023-05-27T20:33:42;20.40;1.00
2409;DHT22;8463;48.094;7.970;2023-05-27T20:36:07;20.20;1.00
2409;DHT22;8463;48.094;7.970;2023-05-27T20:38:34;20.20;1.00
2409;DHT22;8463;48.094;7.970;2023-05-27T20:41:00;20.10;1.00
2409;DHT22;8463;48.094;7.970;2023-05-27T20:43:25;20.00;1.00
2409;DHT22;8463;48.094;7.970;2023-05-27T20:45:51;21.30;1.00
2409;DHT22;8463;48.094;7.970;2023-05-27T20:48:16;20.00;1.00
2409;DHT22;8463;48.094;7.970;2023-05-27T20:50:48;19.90;1.00
2409;DHT22;8463;48.094;7.970;2023-05-27T20:53:14;19.80;1.00
2409;DHT22;8463;48.094;7.970;2023-05-27T20:58:09;19.90;1.00
2409;DHT22;8463;48.094;7.970;2023-05-27T21:00:35;19.80;1.00
2409;DHT22;8463;48.094;7.970;2023-05-27T21:03:00;19.80;1.00
2409;DHT22;8463;48.094;7.970;2023-05-27T21:05:26;19.90;1.00
2409;DHT22;8463;48.094;7.970;2023-05-27T21:07:52;19.80;1.00
2409;DHT22;8463;48.094;7.970;2023-05-27T21:10:18;19.80;1.00
2409;DHT22;8463;48.094;7.970;2023-05-27T21:12:46;19.60;1.00
2409;DHT22;8463;48.094;7.970;2023-05-27T21:15:11;19.40;1.00
2409;DHT22;8463;48.094;7.970;2023-05-27T21:17:37;19.50;1.00
2409;DHT22;8463;48.094;7.970;2023-05-27T21:20:03;19.40;1.00
2409;DHT22;8463;48.094;7.970;2023-05-27T21:22:29;19.40;1.00
2409;DHT22;8463;48.094;7.970;2023-05-27T21:24:58;19.30;1.00
2409;DHT22;8463;48.094;7.970;2023-05-27T21:27:31;19.30;1.00
2409;DHT22;8463;48.094;7.970;2023-05-27T21:29:57;19.30;1.00
2409;DHT22;8463;48.094;7.970;2023-05-27T21:32:28;19.30;1.00
2409;DHT22;8463;48.094;7.970;2023-05-27T21:34:54;19.30;1.00
2409;DHT22;8463;48.094;7.970;2023-05-27T21:37:22;19.40;1.00
2409;DHT22;8463;48.094;7.970;2023-05-27T21:39:50;19.30;1.00
2409;DHT22;8463;48.094;7.970;2023-05-27T21:42:16;19.30;1.00
2409;DHT22;8463;48.094;7.970;2023-05-27T21:44:43;19.30;1.00
2409;DHT22;8463;48.094;7.970;2023-05-27T21:47:09;19.40;1.00
2409;DHT22;8463;48.094;7.970;2023-05-27T21:49:34;19.30;1.00
2409;DHT22;8463;48.094;7.970;2023-05-27T21:52:00;19.30;1.00
2409;DHT22;8463;48.094;7.970;2023-05-27T21:54:26;19.30;1.00
2409;DHT22;8463;48.094;7.970;2023-05-27T21:56:54;19.20;1.00
2409;DHT22;8463;48.094;7.970;2023-05-27T21:59:20;19.10;1.00
2409;DHT22;8463;48.094;7.970;2023-05-27T22:01:45;19.10;1.00
2409;DHT22;8463;48.094;7.970;2023-05-27T22:04:11;19.10;1.00
2409;DHT22;8463;48.094;7.970;2023-05-27T22:06:42;18.90;1.00
2409;DHT22;8463;48.094;7.970;2023-05-27T22:09:08;18.90;1.00
2409;DHT22;8463;48.094;7.970;2023-05-27T22:11:37;18.80;1.00
2409;DHT22;8463;48.094;7.970;2023-05-27T22:14:05;18.80;1.00
2409;DHT22;8463;48.094;7.970;2023-05-27T22:16:34;18.80;1.00
2409;DHT22;8463;48.094;7.970;2023-05-27T22:19:00;18.70;1.00
2409;DHT22;8463;48.094;7.970;2023-05-27T22:21:25;18.80;1.00
2409;DHT22;8463;48.094;7.970;2023-05-27T22:23:54;18.80;1.00
2409;DHT22;8463;48.094;7.970;2023-05-27T22:26:20;18.80;1.00
2409;DHT22;8463;48.094;7.970;2023-05-27T22:28:46;18.70;1.00
2409;DHT22;8463;48.094;7.970;2023-05-27T22:31:12;18.70;1.00
2409;DHT22;8463;48.094;7.970;2023-05-27T22:33:38;18.70;1.00
2409;DHT22;8463;48.094;7.970;2023-05-27T22:36:04;19.00;1.00
2409;DHT22;8463;48.094;7.970;2023-05-27T22:38:30;19.10;1.00
2409;DHT22;8463;48.094;7.970;2023-05-27T22:40:55;19.10;1.00
2409;DHT22;8463;48.094;7.970;2023-05-27T22:43:21;19.00;1.00
2409;DHT22;8463;48.094;7.970;2023-05-27T22:45:47;18.90;1.00
2409;DHT22;8463;48.094;7.970;2023-05-27T22:48:15;18.90;1.00
2409;DHT22;8463;48.094;7.970;2023-05-27T22:50:42;18.80;1.00
2409;DHT22;8463;48.094;7.970;2023-05-27T22:53:10;18.60;1.00
2409;DHT22;8463;48.094;7.970;2023-05-27T22:55:35;18.50;1.00
2409;DHT22;8463;48.094;7.970;2023-05-27T22:58:02;18.30;1.00
2409;DHT22;8463;48.094;7.970;2023-05-27T23:00:27;18.20;1.00
2409;DHT22;8463;48.094;7.970;2023-05-27T23:02:53;18.10;1.00
2409;DHT22;8463;48.094;7.970;2023-05-27T23:05:19;17.70;1.00
2409;DHT22;8463;48.094;7.970;2023-05-27T23:07:44;17.60;1.00
2409;DHT22;8463;48.094;7.970;2023-05-27T23:10:10;17.70;1.00
2409;DHT22;8463;48.094;7.970;2023-05-27T23:12:36;17.60;1.00
2409;DHT22;8463;48.094;7.970;2023-05-27T23:15:02;17.60;1.00
2409;DHT22;8463;48.094;7.970;2023-05-27T23:17:29;17.60;1.00
2409;DHT22;8463;48.094;7.970;2023-05-27T23:19:55;17.50;1.00
2409;DHT22;8463;48.094;7.970;2023-05-27T23:22:21;17.40;1.00
2409;DHT22;8463;48.094;7.970;2023-05-27T23:24:46;17.40;1.00
2409;DHT22;8463;48.094;7.970;2023-05-27T23:27:12;17.10;1.00
2409;DHT22;8463;48.094;7.970;2023-05-27T23:29:38;17.10;1.00
2409;DHT22;8463;48.094;7.970;2023-05-27T23:32:04;16.90;1.00
2409;DHT22;8463;48.094;7.970;2023-05-27T23:34:29;16.90;1.00
2409;DHT22;8463;48.094;7.970;2023-05-27T23:36:55;16.80;1.00
2409;DHT22;8463;48.094;7.970;2023-05-27T23:39:22;16.80;1.00
2409;DHT22;8463;48.094;7.970;2023-05-27T23:41:49;16.80;1.00
2409;DHT22;8463;48.094;7.970;2023-05-27T23:44:17;16.80;1.00
2409;DHT22;8463;48.094;7.970;2023-05-27T23:46:42;16.70;1.00
2409;DHT22;8463;48.094;7.970;2023-05-27T23:49:08;16.80;1.00
2409;DHT22;8463;48.094;7.970;2023-05-27T23:51:34;16.60;1.00
2409;DHT22;8463;48.094;7.970;2023-05-27T23:54:01;16.70;1.00
2409;DHT22;8463;48.094;7.970;2023-05-27T23:56:26;16.70;1.00
2409;DHT22;8463;48.094;7.970;2023-05-27T23:58:52;16.50;1.00
